Time;durP1;ratioP1;P1;durP2;ratioP2;P2;SDS_P1;SDS_P2;PMS_P1;PMS_P2;Temp;Humidity;BMP_temperature;BMP_pressure;BME280_temperature;BME280_humidity;BME280_pressure;Samples;Min_cycle;Max_cycle;Signal;HPM_P1;HPM_P2
2024/03/12 00:02:15;;;;;;;;;;;18.90;58.70;;;;;;5036857;28;1958;-74
2024/03/12 00:04:40;;;;;;;;;;;18.90;58.70;;;;;;5040718;28;1479;-74
2024/03/12 00:07:06;;;;;;;;;;;18.90;58.80;;;;;;5040088;28;1623;-74
2024/03/12 00:09:34;;;;;;;;;;;18.90;58.70;;;;;;5040295;28;1454;-74
2024/03/12 00:12:00;;;;;;;;;;;18.90;58.70;;;;;;5038944;28;1578;-74
2024/03/12 00:14:25;;;;;;;;;;;18.90;58.80;;;;;;5042055;28;1307;-74
2024/03/12 00:16:51;;;;;;;;;;;18.90;58.80;;;;;;5071545;28;1566;-74
2024/03/12 00:19:17;;;;;;;;;;;18.90;58.80;;;;;;5039481;28;1425;-74
2024/03/12 00:21:42;;;;;;;;;;;18.90;58.80;;;;;;5040765;28;1918;-74
2024/03/12 00:24:10;;;;;;;;;;;18.90;58.90;;;;;;5043286;28;1276;-74
2024/03/12 00:26:36;;;;;;;;;;;18.90;58.90;;;;;;5041369;28;1503;-74
2024/03/12 00:29:01;;;;;;;;;;;18.90;58.90;;;;;;5044965;28;1332;-74
2024/03/12 00:31:27;;;;;;;;;;;18.90;58.90;;;;;;5040899;28;1686;-74
2024/03/12 00:33:55;;;;;;;;;;;18.80;58.90;;;;;;5041170;28;1323;-74
2024/03/12 00:36:20;;;;;;;;;;;18.90;58.90;;;;;;5041831;28;1545;-74
2024/03/12 00:38:46;;;;;;;;;;;18.80;58.90;;;;;;5044407;28;1753;-74
2024/03/12 00:41:12;;;;;;;;;;;18.80;58.90;;;;;;5041442;28;1898;-74
2024/03/12 00:43:37;;;;;;;;;;;18.80;59.00;;;;;;5041450;28;1639;-74
2024/03/12 00:46:04;;;;;;;;;;;18.80;59.00;;;;;;5042503;28;1390;-74
2024/03/12 00:48:29;;;;;;;;;;;18.80;59.00;;;;;;5041543;28;1460;-74
2024/03/12 00:50:55;;;;;;;;;;;18.80;59.00;;;;;;5040542;28;1317;-74
2024/03/12 00:53:21;;;;;;;;;;;18.80;59.00;;;;;;5041295;28;1417;-74
2024/03/12 00:55:47;;;;;;;;;;;18.80;59.00;;;;;;5043192;28;1269;-74
2024/03/12 00:58:13;;;;;;;;;;;18.80;59.10;;;;;;5042576;28;1241;-74
2024/03/12 01:00:39;;;;;;;;;;;18.80;59.10;;;;;;5042547;28;1942;-74
2024/03/12 01:03:08;;;;;;;;;;;18.80;59.10;;;;;;5038952;28;1347;-74
2024/03/12 01:05:36;;;;;;;;;;;18.80;59.10;;;;;;5041061;28;1574;-74
2024/03/12 01:08:01;;;;;;;;;;;18.80;59.10;;;;;;5042549;28;1256;-74
2024/03/12 01:10:27;;;;;;;;;;;18.80;59.10;;;;;;5042288;28;1648;-74
2024/03/12 01:12:53;;;;;;;;;;;18.80;59.10;;;;;;5043573;28;1477;-74
2024/03/12 01:15:19;;;;;;;;;;;18.80;59.10;;;;;;5041176;28;1572;-73
2024/03/12 01:17:45;;;;;;;;;;;18.80;59.10;;;;;;5041792;28;1320;-74
2024/03/12 01:20:11;;;;;;;;;;;18.70;59.10;;;;;;5049193;28;1257;-74
2024/03/12 01:22:37;;;;;;;;;;;18.70;59.10;;;;;;5040401;28;1902;-73
2024/03/12 01:25:06;;;;;;;;;;;18.70;59.10;;;;;;5039747;28;1446;-74
2024/03/12 01:27:33;;;;;;;;;;;18.70;59.10;;;;;;5040228;28;1272;-74
2024/03/12 01:30:00;;;;;;;;;;;18.70;59.20;;;;;;5041818;28;1308;-74
2024/03/12 01:32:25;;;;;;;;;;;18.70;59.20;;;;;;5040081;28;1419;-74
2024/03/12 01:34:50;;;;;;;;;;;18.70;59.20;;;;;;5041487;28;1091;-74
2024/03/12 01:37:24;;;;;;;;;;;18.70;59.20;;;;;;5039808;28;1544;-74
2024/03/12 01:39:52;;;;;;;;;;;18.70;59.20;;;;;;5039488;28;1213;-74
2024/03/12 01:42:24;;;;;;;;;;;18.70;59.20;;;;;;5042422;28;1902;-74
2024/03/12 01:44:52;;;;;;;;;;;18.70;59.20;;;;;;5041204;28;1514;-74
2024/03/12 01:47:18;;;;;;;;;;;18.70;59.30;;;;;;5041990;28;1489;-74
2024/03/12 01:49:44;;;;;;;;;;;18.70;59.30;;;;;;5039979;28;1412;-74
2024/03/12 01:52:09;;;;;;;;;;;18.70;59.30;;;;;;5040585;28;1480;-74
2024/03/12 01:54:35;;;;;;;;;;;18.70;59.30;;;;;;5040695;28;1340;-75
2024/03/12 01:57:00;;;;;;;;;;;18.70;59.30;;;;;;5045597;28;931;-73
2024/03/12 01:59:26;;;;;;;;;;;18.70;59.30;;;;;;5042175;28;1186;-74
2024/03/12 02:01:59;;;;;;;;;;;18.70;59.30;;;;;;5041623;28;1906;-74
2024/03/12 02:04:25;;;;;;;;;;;18.70;59.30;;;;;;5038042;28;1336;-74
2024/03/12 02:06:50;;;;;;;;;;;18.70;59.40;;;;;;5057617;28;1260;-74
2024/03/12 02:09:17;;;;;;;;;;;18.60;59.30;;;;;;5041172;28;856;-74
2024/03/12 02:11:42;;;;;;;;;;;18.70;59.40;;;;;;5072912;28;934;-74
2024/03/12 02:14:08;;;;;;;;;;;18.70;59.40;;;;;;5040090;28;1537;-74
2024/03/12 02:16:33;;;;;;;;;;;18.60;59.30;;;;;;5041187;28;1424;-74
2024/03/12 02:18:59;;;;;;;;;;;18.60;59.40;;;;;;5041465;28;1133;-74
2024/03/12 02:21:24;;;;;;;;;;;18.60;59.30;;;;;;5038471;28;1905;-74
2024/03/12 02:23:50;;;;;;;;;;;18.60;59.40;;;;;;5039946;28;1578;-74
2024/03/12 02:26:15;;;;;;;;;;;18.60;59.40;;;;;;5039218;28;1263;-74
2024/03/12 02:28:43;;;;;;;;;;;18.60;59.40;;;;;;5046810;28;1260;-74
2024/03/12 02:31:09;;;;;;;;;;;18.60;59.40;;;;;;5037046;28;1274;-74
2024/03/12 02:33:35;;;;;;;;;;;18.60;59.40;;;;;;5039932;28;1415;-74
2024/03/12 02:36:00;;;;;;;;;;;18.60;59.40;;;;;;5024658;28;1357;-74
2024/03/12 02:38:29;;;;;;;;;;;18.60;59.40;;;;;;5037712;28;1500;-74
2024/03/12 02:40:55;;;;;;;;;;;18.60;59.40;;;;;;5039769;28;1902;-74
2024/03/12 02:43:21;;;;;;;;;;;18.60;59.40;;;;;;5040267;28;1348;-74
2024/03/12 02:45:47;;;;;;;;;;;18.60;59.50;;;;;;5024809;28;1764;-74
2024/03/12 02:48:12;;;;;;;;;;;18.60;59.50;;;;;;5044235;28;1259;-74
2024/03/12 02:50:41;;;;;;;;;;;18.60;59.50;;;;;;5041432;28;1470;-74
2024/03/12 02:53:09;;;;;;;;;;;18.60;59.50;;;;;;5039317;28;1446;-74
2024/03/12 02:55:34;;;;;;;;;;;18.60;59.50;;;;;;5023915;28;1334;-74
2024/03/12 02:58:00;;;;;;;;;;;18.50;59.50;;;;;;5038666;28;905;-74
2024/03/12 03:00:25;;;;;;;;;;;18.60;59.50;;;;;;5038154;28;1270;-75
2024/03/12 03:02:54;;;;;;;;;;;18.60;59.50;;;;;;5040499;28;1894;-74
2024/03/12 03:05:20;;;;;;;;;;;18.50;59.50;;;;;;5038993;28;1402;-74
2024/03/12 03:07:48;;;;;;;;;;;18.50;59.50;;;;;;5040100;28;1615;-74
2024/03/12 03:10:13;;;;;;;;;;;18.50;59.50;;;;;;5037810;28;1277;-74
2024/03/12 03:12:39;;;;;;;;;;;18.60;59.50;;;;;;5025293;28;1592;-74
2024/03/12 03:15:04;;;;;;;;;;;18.50;59.50;;;;;;5035730;28;1239;-74
2024/03/12 03:17:30;;;;;;;;;;;18.50;59.50;;;;;;5038739;28;1374;-74
2024/03/12 03:19:55;;;;;;;;;;;18.50;59.50;;;;;;5041043;28;1239;-74
2024/03/12 03:22:21;;;;;;;;;;;18.50;59.50;;;;;;5040683;28;1991;-74
2024/03/12 03:24:46;;;;;;;;;;;18.60;59.60;;;;;;5040276;28;1456;-74
2024/03/12 03:27:12;;;;;;;;;;;18.50;59.60;;;;;;5038562;28;1519;-74
2024/03/12 03:29:37;;;;;;;;;;;18.50;59.60;;;;;;5039819;28;1350;-74
2024/03/12 03:32:06;;;;;;;;;;;18.50;59.60;;;;;;5038307;28;1166;-73
2024/03/12 03:34:32;;;;;;;;;;;18.50;59.60;;;;;;5024617;28;1374;-74
2024/03/12 03:36:57;;;;;;;;;;;18.50;59.60;;;;;;5042302;28;1322;-75
2024/03/12 03:39:26;;;;;;;;;;;18.50;59.60;;;;;;5041275;28;1227;-74
2024/03/12 03:41:52;;;;;;;;;;;18.50;59.60;;;;;;5037449;28;1894;-74
2024/03/12 03:44:17;;;;;;;;;;;18.50;59.60;;;;;;5041864;28;1662;-74
2024/03/12 03:46:43;;;;;;;;;;;18.50;59.70;;;;;;5072209;28;1466;-74
2024/03/12 03:49:08;;;;;;;;;;;18.50;59.60;;;;;;5038019;28;1837;-74
2024/03/12 03:51:34;;;;;;;;;;;18.50;59.70;;;;;;5047857;28;1276;-73
2024/03/12 03:54:01;;;;;;;;;;;18.50;59.70;;;;;;5040042;28;1546;-74
2024/03/12 03:56:27;;;;;;;;;;;18.50;59.70;;;;;;5042151;28;1495;-75
2024/03/12 03:58:56;;;;;;;;;;;18.50;59.70;;;;;;5045537;28;1359;-74
2024/03/12 04:01:23;;;;;;;;;;;18.50;59.70;;;;;;5044530;28;1906;-74
2024/03/12 04:03:51;;;;;;;;;;;18.50;59.70;;;;;;5041995;28;1735;-74
2024/03/12 04:06:21;;;;;;;;;;;18.50;59.70;;;;;;5041680;28;1262;-74
2024/03/12 04:08:46;;;;;;;;;;;18.40;59.70;;;;;;5043784;28;1350;-74
2024/03/12 04:11:12;;;;;;;;;;;18.50;59.70;;;;;;5043765;28;1339;-74
2024/03/12 04:13:39;;;;;;;;;;;18.50;60.40;;;;;;5044520;28;1492;-74
2024/03/12 04:16:05;;;;;;;;;;;18.40;59.70;;;;;;5041599;28;1330;-74
2024/03/12 04:18:33;;;;;;;;;;;18.50;59.70;;;;;;5040485;28;1330;-74
2024/03/12 04:20:58;;;;;;;;;;;18.40;59.70;;;;;;5042884;28;1957;-74
2024/03/12 04:23:24;;;;;;;;;;;18.40;59.70;;;;;;5041688;28;1344;-74
2024/03/12 04:25:50;;;;;;;;;;;18.40;59.70;;;;;;5051064;28;1580;-74
2024/03/12 04:28:16;;;;;;;;;;;18.40;59.70;;;;;;5041497;28;1284;-74
2024/03/12 04:30:42;;;;;;;;;;;18.40;59.70;;;;;;5041210;28;1417;-74
2024/03/12 04:33:07;;;;;;;;;;;18.40;59.70;;;;;;5037831;28;1627;-74
2024/03/12 04:35:33;;;;;;;;;;;18.40;59.70;;;;;;5040469;28;1272;-73
2024/03/12 04:37:59;;;;;;;;;;;18.40;59.70;;;;;;5043858;28;1026;-74
2024/03/12 04:40:25;;;;;;;;;;;18.40;59.70;;;;;;5040775;28;1587;-74
2024/03/12 04:42:53;;;;;;;;;;;18.40;59.70;;;;;;5044016;28;1890;-74
2024/03/12 04:45:20;;;;;;;;;;;18.40;59.80;;;;;;5040625;28;1169;-74
2024/03/12 04:47:46;;;;;;;;;;;18.40;59.80;;;;;;5042213;28;1105;-74
2024/03/12 04:50:14;;;;;;;;;;;18.40;59.80;;;;;;5042352;28;968;-74
2024/03/12 04:52:40;;;;;;;;;;;18.40;59.80;;;;;;5037240;28;1379;-74
2024/03/12 04:55:06;;;;;;;;;;;18.40;59.80;;;;;;5042708;28;1300;-74
2024/03/12 04:57:31;;;;;;;;;;;18.40;59.80;;;;;;5039285;28;1336;-74
2024/03/12 04:59:57;;;;;;;;;;;18.40;59.80;;;;;;5072490;28;1622;-74
2024/03/12 05:02:22;;;;;;;;;;;18.40;59.80;;;;;;5042851;28;1897;-74
2024/03/12 05:04:48;;;;;;;;;;;18.40;59.80;;;;;;5040490;28;1730;-74
2024/03/12 05:07:13;;;;;;;;;;;18.40;59.80;;;;;;5035551;28;1176;-74
2024/03/12 05:09:40;;;;;;;;;;;18.40;59.80;;;;;;5039924;28;1502;-74
2024/03/12 05:12:06;;;;;;;;;;;18.40;59.80;;;;;;5041561;28;1365;-73
2024/03/12 05:14:31;;;;;;;;;;;18.40;59.70;;;;;;5039750;28;1401;-74
2024/03/12 05:16:59;;;;;;;;;;;18.40;59.70;;;;;;5041551;28;1370;-74
2024/03/12 05:19:24;;;;;;;;;;;18.40;59.70;;;;;;5043797;28;1618;-74
2024/03/12 05:21:50;;;;;;;;;;;18.50;59.60;;;;;;5041669;28;1989;-74
2024/03/12 05:24:17;;;;;;;;;;;18.50;59.60;;;;;;5040306;28;1299;-75
2024/03/12 05:26:49;;;;;;;;;;;18.50;59.40;;;;;;5041876;28;1532;-74
2024/03/12 05:29:14;;;;;;;;;;;18.50;59.40;;;;;;5041633;28;1249;-74
2024/03/12 05:31:40;;;;;;;;;;;18.60;59.30;;;;;;5043010;28;1354;-73
2024/03/12 05:34:27;;;;;;;;;;;18.60;59.20;;;;;;5041329;28;1379;-73
2024/03/12 05:37:02;;;;;;;;;;;18.60;59.10;;;;;;5038113;28;1302;-75
2024/03/12 05:39:47;;;;;;;;;;;18.70;59.10;;;;;;5040280;28;1575;-74
2024/03/12 05:50:25;;;;;;;;;;;18.80;58.80;;;;;;5045829;28;1450;-74
2024/03/12 05:52:53;;;;;;;;;;;18.80;58.80;;;;;;5040198;28;1475;-74
2024/03/12 05:55:19;;;;;;;;;;;18.80;58.70;;;;;;5041496;28;1262;-74
2024/03/12 05:57:44;;;;;;;;;;;18.80;58.70;;;;;;5040907;28;1497;-73
2024/03/12 06:00:11;;;;;;;;;;;18.80;58.60;;;;;;5039365;28;1516;-74
2024/03/12 06:02:37;;;;;;;;;;;18.80;58.60;;;;;;5039117;28;1910;-73
2024/03/12 06:05:02;;;;;;;;;;;18.90;58.60;;;;;;5048329;28;1646;-74
2024/03/12 06:07:28;;;;;;;;;;;18.90;58.60;;;;;;5042031;28;1250;-74
2024/03/12 06:09:53;;;;;;;;;;;18.90;58.60;;;;;;5041869;28;1590;-74
2024/03/12 06:12:19;;;;;;;;;;;18.80;58.50;;;;;;5042019;28;1370;-74
2024/03/12 06:14:44;;;;;;;;;;;18.90;58.50;;;;;;5041462;28;1343;-74
2024/03/12 06:17:10;;;;;;;;;;;18.90;58.50;;;;;;5042223;28;1245;-74
2024/03/12 06:19:35;;;;;;;;;;;18.90;58.50;;;;;;5040464;28;1456;-74
2024/03/12 06:22:01;;;;;;;;;;;18.90;58.40;;;;;;5039604;28;1902;-74
2024/03/12 06:24:26;;;;;;;;;;;18.90;58.40;;;;;;5037399;28;1276;-73
2024/03/12 06:26:52;;;;;;;;;;;18.90;58.40;;;;;;5026403;28;1237;-74
2024/03/12 06:29:17;;;;;;;;;;;18.90;58.40;;;;;;5038911;28;1435;-74
2024/03/12 06:31:44;;;;;;;;;;;18.90;58.40;;;;;;5036529;28;1629;-74
2024/03/12 06:34:10;;;;;;;;;;;18.90;58.40;;;;;;5037996;28;1432;-74
2024/03/12 06:36:36;;;;;;;;;;;18.90;58.40;;;;;;5040107;28;1486;-73
2024/03/12 06:39:01;;;;;;;;;;;18.90;58.40;;;;;;5033078;28;1474;-74
2024/03/12 06:41:27;;;;;;;;;;;18.90;58.40;;;;;;5042517;28;1898;-73
2024/03/12 06:43:52;;;;;;;;;;;18.90;58.40;;;;;;5041047;28;1760;-73
2024/03/12 06:46:21;;;;;;;;;;;18.90;57.50;;;;;;5047003;28;1302;-74
2024/03/12 06:48:47;;;;;;;;;;;18.80;55.00;;;;;;5041383;28;1927;-73
2024/03/12 06:51:13;;;;;;;;;;;18.80;55.50;;;;;;5039503;28;2162;-71
2024/03/12 06:53:38;;;;;;;;;;;18.80;55.70;;;;;;5038473;28;1713;-72
2024/03/12 06:56:06;;;;;;;;;;;18.80;55.80;;;;;;5039560;28;1310;-72
2024/03/12 06:58:32;;;;;;;;;;;18.80;55.80;;;;;;5038736;28;1663;-71
2024/03/12 07:00:57;;;;;;;;;;;18.80;55.90;;;;;;5041946;28;1981;-71
2024/03/12 07:03:24;;;;;;;;;;;18.80;56.00;;;;;;5036971;28;1591;-71
2024/03/12 07:05:50;;;;;;;;;;;18.80;56.20;;;;;;5039255;28;1549;-71
2024/03/12 07:08:17;;;;;;;;;;;18.80;56.40;;;;;;5041035;28;1534;-72
2024/03/12 07:10:43;;;;;;;;;;;18.80;57.00;;;;;;5036234;28;1222;-72
2024/03/12 07:13:08;;;;;;;;;;;18.90;57.00;;;;;;5040970;28;1392;-73
2024/03/12 07:15:35;;;;;;;;;;;19.00;56.90;;;;;;5037976;28;1149;-73
2024/03/12 07:18:00;;;;;;;;;;;19.00;56.80;;;;;;5037907;28;951;-73
2024/03/12 07:20:29;;;;;;;;;;;19.20;56.90;;;;;;5038175;28;1086;-73
2024/03/12 07:22:58;;;;;;;;;;;19.20;56.80;;;;;;5040472;28;1890;-73
2024/03/12 07:25:25;;;;;;;;;;;19.30;56.80;;;;;;5038690;28;876;-74
2024/03/12 07:27:52;;;;;;;;;;;19.40;56.70;;;;;;5043425;28;1143;-74
2024/03/12 07:30:18;;;;;;;;;;;19.50;56.50;;;;;;5046100;28;1417;-75
2024/03/12 07:32:46;;;;;;;;;;;19.60;56.40;;;;;;5046357;28;1556;-73
2024/03/12 07:35:12;;;;;;;;;;;19.60;56.30;;;;;;5044428;28;1501;-74
2024/03/12 07:37:39;;;;;;;;;;;19.70;56.20;;;;;;5042632;28;1592;-76
2024/03/12 07:40:06;;;;;;;;;;;19.80;56.10;;;;;;5044992;28;1687;-75
2024/03/12 07:42:31;;;;;;;;;;;19.80;56.00;;;;;;5046469;28;1960;-74
2024/03/12 07:44:58;;;;;;;;;;;19.90;55.90;;;;;;5048467;28;1526;-74
2024/03/12 07:47:24;;;;;;;;;;;20.00;55.80;;;;;;5045877;28;1364;-74
2024/03/12 07:49:51;;;;;;;;;;;20.00;55.70;;;;;;5043553;28;1377;-75
2024/03/12 07:52:16;;;;;;;;;;;20.10;55.70;;;;;;5052807;28;1377;-73
2024/03/12 07:54:42;;;;;;;;;;;20.10;55.60;;;;;;5043530;28;1520;-74
2024/03/12 07:57:11;;;;;;;;;;;20.10;55.60;;;;;;5045510;28;1451;-74
2024/03/12 07:59:36;;;;;;;;;;;20.20;55.50;;;;;;5046623;28;1289;-74
2024/03/12 08:02:11;;;;;;;;;;;20.20;55.50;;;;;;5073895;28;1960;-74
2024/03/12 08:04:42;;;;;;;;;;;20.20;55.40;;;;;;5051778;28;1754;-74
2024/03/12 08:07:09;;;;;;;;;;;20.30;55.40;;;;;;5043836;28;1140;-74
2024/03/12 08:09:34;;;;;;;;;;;20.30;55.40;;;;;;5042759;28;1495;-74
2024/03/12 08:12:01;;;;;;;;;;;20.30;55.30;;;;;;5044052;28;1407;-74
2024/03/12 08:14:35;;;;;;;;;;;20.40;55.30;;;;;;5031159;28;1364;-74
2024/03/12 08:17:03;;;;;;;;;;;20.40;55.30;;;;;;5047586;28;1697;-74
2024/03/12 08:19:28;;;;;;;;;;;20.40;55.30;;;;;;5044937;28;1570;-74
2024/03/12 08:21:54;;;;;;;;;;;20.50;55.20;;;;;;5043721;28;1910;-74
2024/03/12 08:24:19;;;;;;;;;;;20.50;55.20;;;;;;5047025;28;1300;-74
2024/03/12 08:26:45;;;;;;;;;;;20.50;55.20;;;;;;5048722;28;1427;-74
2024/03/12 08:29:12;;;;;;;;;;;20.50;55.20;;;;;;5047361;28;1332;-74
2024/03/12 08:31:38;;;;;;;;;;;20.50;55.30;;;;;;5043957;28;1602;-75
2024/03/12 08:34:09;;;;;;;;;;;20.60;55.40;;;;;;5049423;28;1352;-75
2024/03/12 08:36:34;;;;;;;;;;;20.60;55.50;;;;;;5046324;28;1434;-74
2024/03/12 08:39:01;;;;;;;;;;;20.60;55.60;;;;;;5045332;28;1127;-74
2024/03/12 08:41:26;;;;;;;;;;;20.70;55.80;;;;;;5043365;28;2005;-74
2024/03/12 08:43:52;;;;;;;;;;;20.70;55.90;;;;;;5039685;28;1638;-73
2024/03/12 08:46:18;;;;;;;;;;;20.70;56.00;;;;;;5049707;28;1517;-74
2024/03/12 08:48:44;;;;;;;;;;;20.80;56.00;;;;;;5026108;28;1477;-74
2024/03/12 08:51:10;;;;;;;;;;;20.80;56.00;;;;;;5041425;28;1466;-75
2024/03/12 08:53:36;;;;;;;;;;;20.80;56.00;;;;;;5048973;28;1535;-75
2024/03/12 08:56:03;;;;;;;;;;;20.80;56.10;;;;;;5047535;28;1894;-74
2024/03/12 08:58:28;;;;;;;;;;;20.80;56.10;;;;;;5050462;28;1256;-74
2024/03/12 09:00:55;;;;;;;;;;;20.90;56.30;;;;;;5052228;28;1976;-75
2024/03/12 09:03:21;;;;;;;;;;;20.90;56.40;;;;;;5047525;28;1724;-74
2024/03/12 09:05:46;;;;;;;;;;;20.90;56.60;;;;;;5049791;28;1284;-74
2024/03/12 09:08:12;;;;;;;;;;;21.00;56.70;;;;;;5042117;28;816;-74
2024/03/12 09:10:37;;;;;;;;;;;20.90;56.80;;;;;;5045991;28;1440;-75
2024/03/12 09:13:06;;;;;;;;;;;21.00;57.00;;;;;;5062424;28;1758;-75
2024/03/12 09:15:31;;;;;;;;;;;21.00;57.20;;;;;;5043104;28;1327;-75
2024/03/12 09:18:06;;;;;;;;;;;21.00;57.40;;;;;;5043138;28;1640;-74
2024/03/12 09:20:33;;;;;;;;;;;21.00;57.90;;;;;;5040667;28;1375;-74
2024/03/12 09:22:59;;;;;;;;;;;21.00;58.00;;;;;;5045018;28;1914;-74
2024/03/12 09:25:24;;;;;;;;;;;21.00;58.00;;;;;;5042012;28;1430;-74
2024/03/12 09:27:50;;;;;;;;;;;21.00;58.10;;;;;;5022712;28;1532;-74
2024/03/12 09:30:16;;;;;;;;;;;21.00;58.20;;;;;;5040408;28;1621;-74
2024/03/12 09:32:44;;;;;;;;;;;21.00;58.30;;;;;;5040974;28;1371;-74
2024/03/12 09:35:09;;;;;;;;;;;21.00;58.40;;;;;;5041127;28;1325;-74
2024/03/12 09:37:35;;;;;;;;;;;21.00;58.50;;;;;;5039232;28;1455;-74
2024/03/12 09:40:05;;;;;;;;;;;21.00;58.50;;;;;;5040000;28;1528;-74
2024/03/12 09:42:32;;;;;;;;;;;21.00;58.60;;;;;;5038862;28;1973;-74
2024/03/12 09:44:57;;;;;;;;;;;21.00;58.60;;;;;;5040952;28;1355;-74
2024/03/12 09:47:23;;;;;;;;;;;21.00;58.60;;;;;;5021060;28;1316;-75
2024/03/12 09:49:49;;;;;;;;;;;20.90;58.70;;;;;;5040443;28;1456;-74
2024/03/12 09:52:14;;;;;;;;;;;21.00;58.80;;;;;;5024408;28;1385;-74
2024/03/12 09:54:40;;;;;;;;;;;20.90;58.90;;;;;;5039930;28;1358;-74
2024/03/12 09:57:07;;;;;;;;;;;21.00;58.90;;;;;;5038250;28;1597;-73
2024/03/12 09:59:32;;;;;;;;;;;20.90;58.90;;;;;;5042742;28;1408;-74
2024/03/12 10:02:01;;;;;;;;;;;20.90;58.90;;;;;;5042295;28;1898;-74
2024/03/12 10:04:27;;;;;;;;;;;20.90;59.20;;;;;;5039378;28;1337;-73
2024/03/12 10:06:53;;;;;;;;;;;20.90;59.10;;;;;;5042945;28;1082;-73
2024/03/12 10:09:18;;;;;;;;;;;20.90;59.30;;;;;;5047365;28;960;-73
2024/03/12 10:11:44;;;;;;;;;;;20.90;59.40;;;;;;5038530;28;1352;-74
2024/03/12 10:14:12;;;;;;;;;;;20.90;60.20;;;;;;5047700;28;1597;-74
2024/03/12 10:16:38;;;;;;;;;;;20.90;60.20;;;;;;5040447;28;1458;-74
2024/03/12 10:19:09;;;;;;;;;;;20.90;60.10;;;;;;5036144;28;1375;-74
2024/03/12 10:21:37;;;;;;;;;;;20.80;59.90;;;;;;5038895;28;2001;-74
2024/03/12 10:24:13;;;;;;;;;;;20.80;60.30;;;;;;5030478;28;1647;-74
2024/03/12 10:26:41;;;;;;;;;;;20.80;60.40;;;;;;5035432;28;1226;-73
2024/03/12 10:29:08;;;;;;;;;;;20.80;60.50;;;;;;5047369;28;1429;-74
2024/03/12 10:31:36;;;;;;;;;;;20.80;60.50;;;;;;5041173;28;1587;-73
2024/03/12 10:34:06;;;;;;;;;;;20.70;60.40;;;;;;5030068;28;1489;-74
2024/03/12 10:36:32;;;;;;;;;;;20.70;60.40;;;;;;5040654;28;1285;-74
2024/03/12 10:38:57;;;;;;;;;;;20.70;60.40;;;;;;5040200;28;1046;-74
2024/03/12 10:41:23;;;;;;;;;;;20.70;60.60;;;;;;5040522;28;1906;-73
2024/03/12 10:43:55;;;;;;;;;;;20.60;60.50;;;;;;5037236;28;1461;-74
2024/03/12 10:46:21;;;;;;;;;;;20.60;60.70;;;;;;5024041;28;1640;-73
2024/03/12 10:48:50;;;;;;;;;;;20.60;60.70;;;;;;5037485;28;1639;-74
2024/03/12 10:51:17;;;;;;;;;;;20.60;61.00;;;;;;5039106;28;1373;-72
2024/03/12 10:53:43;;;;;;;;;;;20.60;61.10;;;;;;5038146;28;1449;-74
2024/03/12 10:56:11;;;;;;;;;;;20.50;61.00;;;;;;5047615;28;1272;-74
2024/03/12 10:58:37;;;;;;;;;;;20.50;61.10;;;;;;5046377;28;1335;-74
2024/03/12 11:01:04;;;;;;;;;;;20.50;61.30;;;;;;5044744;28;1960;-74
2024/03/12 11:03:31;;;;;;;;;;;20.50;61.70;;;;;;5042188;28;1640;-74
2024/03/12 11:05:57;;;;;;;;;;;20.50;61.90;;;;;;5044039;28;1639;-74
2024/03/12 11:08:23;;;;;;;;;;;20.50;62.10;;;;;;5040835;28;1285;-74
2024/03/12 11:10:49;;;;;;;;;;;20.50;62.50;;;;;;5039765;28;1242;-74
2024/03/12 11:13:20;;;;;;;;;;;20.50;62.90;;;;;;5041085;28;1383;-74
2024/03/12 11:15:48;;;;;;;;;;;20.40;63.00;;;;;;5040762;28;1379;-74
2024/03/12 11:18:27;;;;;;;;;;;20.40;63.40;;;;;;5043283;28;1342;-73
2024/03/12 11:20:52;;;;;;;;;;;20.40;63.50;;;;;;5039432;28;1906;-74
2024/03/12 11:23:18;;;;;;;;;;;20.40;63.90;;;;;;5070417;28;1426;-74
2024/03/12 11:25:44;;;;;;;;;;;20.40;64.10;;;;;;5038559;28;1659;-75
2024/03/12 11:28:20;;;;;;;;;;;20.40;64.20;;;;;;5024057;28;1293;-74
2024/03/12 11:30:58;;;;;;;;;;;20.40;64.30;;;;;;5035857;28;1645;-74
2024/03/12 11:33:40;;;;;;;;;;;20.30;64.70;;;;;;5038430;28;1304;-74
2024/03/12 11:36:19;;;;;;;;;;;20.30;64.80;;;;;;5038022;28;1141;-74
2024/03/12 11:38:45;;;;;;;;;;;20.30;64.50;;;;;;5037428;28;1327;-74
2024/03/12 11:41:11;;;;;;;;;;;20.30;64.90;;;;;;5036649;28;1906;-74
2024/03/12 11:43:40;;;;;;;;;;;20.30;64.90;;;;;;5040582;28;1566;-74
2024/03/12 11:46:10;;;;;;;;;;;20.30;65.20;;;;;;5037542;28;1491;-75
2024/03/12 11:48:36;;;;;;;;;;;20.30;65.10;;;;;;5073411;28;1486;-74
2024/03/12 11:51:03;;;;;;;;;;;20.30;65.20;;;;;;5039123;28;1254;-74
2024/03/12 11:53:30;;;;;;;;;;;20.30;64.90;;;;;;5071440;28;1505;-74
2024/03/12 11:56:00;;;;;;;;;;;20.30;64.80;;;;;;5039184;28;1784;-73
2024/03/12 11:58:31;;;;;;;;;;;20.40;64.70;;;;;;5038876;28;1330;-74
2024/03/12 12:01:00;;;;;;;;;;;20.40;64.50;;;;;;5039986;28;1977;-74
2024/03/12 12:03:25;;;;;;;;;;;20.40;64.70;;;;;;5046548;28;1276;-75
2024/03/12 12:05:51;;;;;;;;;;;20.30;64.60;;;;;;5039112;28;1283;-74
2024/03/12 12:08:18;;;;;;;;;;;20.40;64.70;;;;;;5037072;28;1243;-74
2024/03/12 12:10:56;;;;;;;;;;;20.30;64.40;;;;;;5039503;28;1467;-75
2024/03/12 12:13:23;;;;;;;;;;;20.30;64.60;;;;;;5040414;28;1365;-74
2024/03/12 12:16:15;;;;;;;;;;;20.20;64.40;;;;;;5043599;28;1432;-74
2024/03/12 12:18:41;;;;;;;;;;;20.20;64.30;;;;;;5039631;28;1562;-74
2024/03/12 12:21:11;;;;;;;;;;;20.20;64.30;;;;;;5042213;28;1976;-74
2024/03/12 12:23:37;;;;;;;;;;;20.20;64.30;;;;;;5042484;28;1402;-74
2024/03/12 12:26:05;;;;;;;;;;;20.20;64.30;;;;;;5039922;28;1289;-74
2024/03/12 12:28:30;;;;;;;;;;;20.20;64.30;;;;;;5041411;28;1511;-74
2024/03/12 12:30:58;;;;;;;;;;;20.20;64.10;;;;;;5039545;28;1511;-73
2024/03/12 12:33:25;;;;;;;;;;;20.20;64.10;;;;;;5038085;28;1458;-74
2024/03/12 12:35:50;;;;;;;;;;;20.20;64.00;;;;;;5042367;28;1274;-74
2024/03/12 12:38:16;;;;;;;;;;;20.20;64.00;;;;;;5073133;28;1459;-73
2024/03/12 12:40:44;;;;;;;;;;;20.20;63.90;;;;;;5045161;28;1472;-73
2024/03/12 12:43:13;;;;;;;;;;;20.20;63.80;;;;;;5071990;28;2329;-73
2024/03/12 12:45:39;;;;;;;;;;;20.20;63.80;;;;;;5043563;28;1301;-74
2024/03/12 12:48:04;;;;;;;;;;;20.20;63.70;;;;;;5055797;28;1626;-74
2024/03/12 12:50:31;;;;;;;;;;;20.20;63.70;;;;;;5040136;28;1280;-74
2024/03/12 12:53:04;;;;;;;;;;;20.20;63.60;;;;;;5038933;28;1451;-73
2024/03/12 12:55:30;;;;;;;;;;;20.20;63.60;;;;;;5038906;28;1597;-74
2024/03/12 12:57:59;;;;;;;;;;;20.20;63.50;;;;;;5043162;28;1618;-73
2024/03/12 13:00:25;;;;;;;;;;;20.20;63.50;;;;;;5038711;28;1556;-74
2024/03/12 13:02:50;;;;;;;;;;;20.20;63.50;;;;;;5042183;28;1963;-73
2024/03/12 13:05:19;;;;;;;;;;;20.20;63.40;;;;;;5042477;28;1375;-73
2024/03/12 13:07:45;;;;;;;;;;;20.20;63.40;;;;;;5040045;28;1311;-74
2024/03/12 13:10:20;;;;;;;;;;;20.20;63.40;;;;;;5027087;28;1582;-74
2024/03/12 13:12:46;;;;;;;;;;;20.20;63.30;;;;;;5048600;28;1376;-73
2024/03/12 13:15:33;;;;;;;;;;;20.20;63.30;;;;;;5037799;28;1299;-74
2024/03/12 13:17:59;;;;;;;;;;;20.20;63.30;;;;;;5047620;28;1542;-74
2024/03/12 13:20:25;;;;;;;;;;;20.20;63.30;;;;;;5041380;28;1460;-74
2024/03/12 13:22:50;;;;;;;;;;;20.20;63.30;;;;;;5042981;28;1894;-74
2024/03/12 13:25:16;;;;;;;;;;;20.20;63.40;;;;;;5046486;28;1247;-73
2024/03/12 13:27:42;;;;;;;;;;;20.20;63.40;;;;;;5042470;28;1270;-74
2024/03/12 13:30:14;;;;;;;;;;;20.20;63.40;;;;;;5042562;28;1468;-73
2024/03/12 13:32:41;;;;;;;;;;;20.20;63.50;;;;;;5041057;28;1536;-73
2024/03/12 13:35:08;;;;;;;;;;;20.20;63.50;;;;;;5043106;28;1484;-74
2024/03/12 13:37:33;;;;;;;;;;;20.20;63.60;;;;;;5024767;28;1555;-73
2024/03/12 13:39:59;;;;;;;;;;;20.20;63.60;;;;;;5040728;28;1953;-73
2024/03/12 13:42:26;;;;;;;;;;;20.10;63.50;;;;;;5040880;28;1886;-74
2024/03/12 13:44:52;;;;;;;;;;;20.10;63.60;;;;;;5040972;28;1343;-73
2024/03/12 13:47:18;;;;;;;;;;;20.10;63.50;;;;;;5045748;28;1667;-73
2024/03/12 13:49:44;;;;;;;;;;;20.10;63.60;;;;;;5041079;28;1349;-74
2024/03/12 13:52:09;;;;;;;;;;;20.10;63.50;;;;;;5040947;28;836;-71
2024/03/12 13:54:35;;;;;;;;;;;20.10;63.60;;;;;;5040582;28;1613;-73
2024/03/12 13:57:02;;;;;;;;;;;20.10;63.60;;;;;;5040692;28;1379;-72
2024/03/12 13:59:28;;;;;;;;;;;20.10;63.60;;;;;;5041996;28;1343;-73
2024/03/12 14:01:54;;;;;;;;;;;20.10;63.80;;;;;;5041154;28;1967;-74
2024/03/12 14:04:19;;;;;;;;;;;20.00;63.80;;;;;;5044769;28;1355;-73
2024/03/12 14:06:46;;;;;;;;;;;20.00;63.80;;;;;;5042980;28;1386;-72
2024/03/12 14:09:14;;;;;;;;;;;20.00;63.80;;;;;;5039296;28;1228;-72
2024/03/12 14:11:40;;;;;;;;;;;20.10;63.80;;;;;;5043159;28;1120;-72
2024/03/12 14:14:08;;;;;;;;;;;20.10;63.70;;;;;;5062326;28;1353;-72
2024/03/12 14:16:34;;;;;;;;;;;20.10;64.00;;;;;;5044243;28;1434;-72
2024/03/12 14:19:00;;;;;;;;;;;20.10;63.70;;;;;;5050038;28;1598;-72
2024/03/12 14:21:25;;;;;;;;;;;20.10;63.70;;;;;;5039400;28;1899;-72
2024/03/12 14:23:52;;;;;;;;;;;20.10;63.80;;;;;;5045302;28;1310;-72
2024/03/12 14:26:18;;;;;;;;;;;20.10;63.80;;;;;;5036277;28;1330;-73
2024/03/12 14:28:45;;;;;;;;;;;20.10;63.80;;;;;;5040727;28;1481;-73
2024/03/12 14:31:13;;;;;;;;;;;20.10;63.80;;;;;;5025311;28;1681;-74
2024/03/12 14:33:39;;;;;;;;;;;20.10;63.80;;;;;;5037885;28;1602;-74
2024/03/12 14:36:05;;;;;;;;;;;20.10;63.90;;;;;;5040169;28;1288;-73
2024/03/12 14:38:30;;;;;;;;;;;20.00;63.90;;;;;;5040556;28;1557;-73